Shadyside, Ohio
Current Conditions -  °F | °C
As of 8:53 AM on Thursday 29 Jan 2015 (Local Time) from KHLG Reporting Station
Broken Clouds Broken Clouds  
Wind Chill: 23°   Ceiling: 12000
Heat Index: 31°   Visibility: 10mi
Dew Point: 14°   Wind: 9mph
Humidity: 50%   Direction: 140°SE
Pressure: 29.96"   Gusts: NA
Location:  39.97°N, 80.75°W
Report Text: KHLG 291353Z 14008KT 10SM FEW070 FEW090 BKN120 M01/M10 A2996 RMK AO2 SLP163 T10061100
Loading
Personal Weather Stations






























Interactive Weather Map New forecast layout! Learn more

10-Day Weather Forecast

Advertisements
Track Severe Weather on mobile